Time;durP1;ratioP1;P1;durP2;ratioP2;P2;SDS_P1;SDS_P2;PMS_P1;PMS_P2;Temp;Humidity;BMP_temperature;BMP_pressure;BME280_temperature;BME280_humidity;BME280_pressure;Samples;Min_cycle;Max_cycle;Signal;HPM_P1;HPM_P2
2023/05/17 00:00:44;;;;;;;38.80;6.33;;;7.60;72.20;;;;;;6284096;22;20026;-96
2023/05/17 00:03:15;;;;;;;;;;;7.60;72.50;;;;;;6257632;22;20050;-96
2023/05/17 00:05:41;;;;;;;;;;;7.50;72.80;;;;;;6308808;22;20442;-95
2023/05/17 00:08:12;;;;;;;29.33;5.77;;;7.50;72.80;;;;;;6269759;22;19914;-96
2023/05/17 00:10:42;;;;;;;33.13;6.10;;;7.50;72.60;;;;;;6272671;22;20017;-96
2023/05/17 00:13:24;;;;;;;30.67;5.70;;;7.50;72.60;;;;;;6280262;22;20023;-96
2023/05/17 00:15:50;;;;;;;26.33;5.80;;;7.50;72.80;;;;;;6282731;22;20038;-95
2023/05/17 00:18:19;;;;;;;26.17;5.87;;;7.50;72.70;;;;;;6227647;22;20023;-95
2023/05/17 00:20:53;;;;;;;25.60;5.87;;;7.50;72.80;;;;;;6284206;22;20022;-96
2023/05/17 00:26:40;;;;;;;25.07;5.60;;;7.60;73.20;;;;;;6304084;22;20091;-95
2023/05/17 00:29:32;;;;;;;32.53;6.13;;;7.60;73.30;;;;;;6238639;22;20019;-96
2023/05/17 00:32:13;;;;;;;;;;;7.70;73.30;;;;;;6262260;22;20565;-96
2023/05/17 00:34:55;;;;;;;32.40;6.43;;;7.70;73.90;;;;;;6267211;22;19914;-95
2023/05/17 00:37:30;;;;;;;34.07;6.33;;;7.80;74.00;;;;;;6275159;22;20102;-96
2023/05/17 00:40:06;;;;;;;27.10;5.70;;;7.80;73.50;;;;;;6283584;22;20086;-96
2023/05/17 00:42:35;;;;;;;33.87;6.77;;;7.80;73.50;;;;;;6241528;22;20026;-95
2023/05/17 00:45:01;;;;;;;31.07;6.43;;;7.80;73.50;;;;;;6265150;22;20101;-96
2023/05/17 00:47:30;;;;;;;31.43;6.07;;;7.90;73.50;;;;;;6250155;22;20039;-96
2023/05/17 00:50:08;;;;;;;32.93;6.30;;;8.00;73.50;;;;;;6283813;22;20022;-95
2023/05/17 00:52:40;;;;;;;36.33;6.40;;;8.00;73.50;;;;;;6282094;22;20027;-96
2023/05/17 00:59:32;;;;;;;34.00;6.30;;;8.00;73.90;;;;;;5985929;23;20024;-93
2023/05/17 01:01:59;;;;;;;29.60;5.53;;;8.10;73.50;;;;;;6114919;23;20017;-94
2023/05/17 01:04:34;;;;;;;22.70;4.60;;;8.00;73.30;;;;;;6262497;22;20023;-93
2023/05/17 01:07:00;;;;;;;25.10;4.70;;;8.00;73.10;;;;;;6274182;22;20019;-92
2023/05/17 01:09:28;;;;;;;23.60;4.43;;;8.00;73.00;;;;;;6306019;22;20019;-93
2023/05/17 01:12:13;;;;;;;19.80;4.10;;;8.00;72.90;;;;;;6282626;22;20487;-95
2023/05/17 01:14:57;;;;;;;20.87;4.10;;;8.00;72.70;;;;;;6280203;22;20575;-91
2023/05/17 01:17:50;;;;;;;17.67;4.17;;;7.90;72.60;;;;;;6271876;22;20023;-93
2023/05/17 01:20:37;;;;;;;18.43;3.67;;;7.80;72.60;;;;;;6282700;22;20019;-95
2023/05/17 01:23:34;;;;;;;18.63;3.97;;;7.80;72.60;;;;;;6280470;22;20023;-93
2023/05/17 01:26:38;;;;;;;22.57;3.57;;;7.80;72.50;;;;;;6282733;22;20015;-93
2023/05/17 01:29:07;;;;;;;23.13;4.07;;;7.70;72.50;;;;;;6186504;23;20605;-93
2023/05/17 01:31:53;;;;;;;19.63;3.97;;;7.70;72.50;;;;;;6290866;22;20015;-93
2023/05/17 01:34:39;;;;;;;19.93;3.50;;;7.70;72.50;;;;;;6267685;22;20038;-95
2023/05/17 01:37:05;;;;;;;19.30;3.73;;;7.60;72.40;;;;;;6273193;22;20011;-95
2023/05/17 01:39:40;;;;;;;21.73;4.00;;;7.60;72.40;;;;;;6256470;22;20376;-95
2023/05/17 01:42:44;;;;;;;20.07;4.03;;;7.50;72.40;;;;;;6255456;22;20072;-96
2023/05/17 01:45:39;;;;;;;14.70;3.87;;;7.50;72.30;;;;;;6235484;22;20098;-93
2023/05/17 01:48:20;;;;;;;17.93;3.50;;;7.50;72.30;;;;;;6263320;22;20464;-93
2023/05/17 01:50:55;;;;;;;12.98;3.47;;;7.50;72.30;;;;;;6282813;22;20075;-95
2023/05/17 01:53:38;;;;;;;17.43;3.27;;;7.40;72.20;;;;;;6280672;22;20015;-95
2023/05/17 01:56:09;;;;;;;20.53;3.40;;;7.40;72.10;;;;;;6283066;22;20368;-93
2023/05/17 01:58:49;;;;;;;12.57;3.40;;;7.40;72.00;;;;;;6277332;22;20481;-96
2023/05/17 02:01:21;;;;;;;19.63;3.83;;;7.30;72.00;;;;;;6284438;22;20015;-96
2023/05/17 02:04:08;;;;;;;18.47;2.90;;;7.30;72.00;;;;;;6256070;22;20015;-94
2023/05/17 02:06:39;;;;;;;15.57;3.30;;;7.30;71.90;;;;;;6254035;22;20042;-92
2023/05/17 02:09:05;;;;;;;14.60;2.97;;;7.30;71.90;;;;;;6281485;22;20524;-93
2023/05/17 02:11:31;;;;;;;16.60;3.07;;;7.30;71.80;;;;;;6259000;22;20015;-93
2023/05/17 02:14:03;;;;;;;21.87;3.23;;;7.30;71.80;;;;;;6281858;22;20115;-95
2023/05/17 02:16:28;;;;;;;17.33;3.53;;;7.30;71.80;;;;;;6306533;22;20011;-94
2023/05/17 02:18:54;;;;;;;16.00;3.10;;;7.30;71.90;;;;;;6279894;22;20045;-95
2023/05/17 02:21:26;;;;;;;21.53;3.47;;;7.30;72.00;;;;;;6258683;22;20014;-93
2023/05/17 02:23:52;;;;;;;26.13;4.10;;;7.30;72.10;;;;;;6242332;22;20019;-93
2023/05/17 02:26:18;;;;;;;24.27;3.83;;;7.30;72.10;;;;;;6280814;22;20027;-92
2023/05/17 02:28:48;;;;;;;18.20;3.93;;;7.40;72.20;;;;;;6240281;22;20015;-94
2023/05/17 02:31:17;;;;;;;27.57;4.23;;;7.40;72.30;;;;;;6284229;22;20026;-93
2023/05/17 02:33:46;;;;;;;20.60;3.90;;;7.40;72.30;;;;;;6281908;22;20045;-93
2023/05/17 02:36:12;;;;;;;18.87;4.17;;;7.50;72.40;;;;;;6282670;22;20064;-93
2023/05/17 02:38:40;;;;;;;17.17;3.37;;;7.50;72.50;;;;;;6255252;22;20046;-94
2023/05/17 02:41:09;;;;;;;22.27;4.23;;;7.50;72.50;;;;;;6283060;22;20091;-94
2023/05/17 02:43:38;;;;;;;22.43;4.10;;;7.50;72.60;;;;;;6282714;22;20022;-93
2023/05/17 02:46:07;;;;;;;20.43;3.83;;;7.50;72.50;;;;;;6284613;22;20011;-92
2023/05/17 02:48:39;;;;;;;20.20;3.77;;;7.50;72.50;;;;;;6250877;22;20097;-93
2023/05/17 02:51:05;;;;;;;25.53;3.67;;;7.50;72.40;;;;;;6283812;22;20062;-93
2023/05/17 02:53:31;;;;;;;24.10;4.50;;;7.50;72.20;;;;;;6281944;22;20388;-93
2023/05/17 02:55:58;;;;;;;19.47;3.60;;;7.50;72.00;;;;;;6282409;22;20018;-95
2023/05/17 02:58:26;;;;;;;17.43;3.37;;;7.50;72.00;;;;;;6276907;22;20015;-94
2023/05/17 03:00:58;;;;;;;14.40;3.20;;;7.40;71.80;;;;;;6284203;22;20015;-93
2023/05/17 03:03:27;;;;;;;22.83;3.67;;;7.40;71.60;;;;;;6306847;22;20631;-93
2023/05/17 03:05:52;;;;;;;15.73;3.13;;;7.30;71.50;;;;;;6283946;22;20083;-92
2023/05/17 03:08:25;;;;;;;17.43;3.17;;;7.20;71.50;;;;;;6274585;22;20027;-94
2023/05/17 03:10:51;;;;;;;18.27;3.23;;;7.20;71.30;;;;;;6284386;22;20026;-92
2023/05/17 03:13:16;;;;;;;19.23;3.77;;;7.20;71.30;;;;;;6281681;22;20337;-94
2023/05/17 03:15:42;;;;;;;13.13;3.63;;;7.20;71.00;;;;;;6257946;22;20115;-92
2023/05/17 03:18:11;;;;;;;14.13;3.00;;;7.10;70.90;;;;;;6246777;22;20029;-93
2023/05/17 03:20:40;;;;;;;12.80;2.33;;;7.10;70.70;;;;;;6258559;22;20528;-91
2023/05/17 03:23:08;;;;;;;14.47;3.47;;;7.00;70.70;;;;;;6281073;22;20018;-92
2023/05/17 03:25:39;;;;;;;15.43;2.90;;;7.00;70.50;;;;;;6258709;22;20479;-96
2023/05/17 03:28:05;;;;;;;13.50;2.55;;;7.00;70.10;;;;;;6250450;22;20010;-90
2023/05/17 03:30:31;;;;;;;19.23;2.93;;;7.00;69.50;;;;;;6284036;22;20041;-91
2023/05/17 03:32:57;;;;;;;14.60;2.77;;;7.00;69.30;;;;;;6256693;22;20011;-91
2023/05/17 03:35:22;;;;;;;10.60;2.37;;;7.00;69.10;;;;;;6283001;22;20023;-93
2023/05/17 03:37:48;;;;;;;13.20;2.90;;;7.10;68.80;;;;;;6276626;22;20025;-92
2023/05/17 03:40:14;;;;;;;10.87;2.77;;;7.10;68.70;;;;;;6258170;22;20093;-93
2023/05/17 03:42:40;;;;;;;14.53;2.33;;;7.10;68.80;;;;;;6256470;22;20041;-94
2023/05/17 03:45:06;;;;;;;13.37;2.80;;;7.10;68.70;;;;;;6282893;22;20023;-92
2023/05/17 03:47:32;;;;;;;15.43;3.13;;;7.20;68.60;;;;;;6273144;22;20064;-94
2023/05/17 03:50:00;;;;;;;14.37;2.47;;;7.20;68.80;;;;;;6283017;22;20015;-94
2023/05/17 03:52:26;;;;;;;15.97;2.90;;;7.20;68.90;;;;;;6255294;22;20026;-92
2023/05/17 03:54:52;;;;;;;14.63;2.87;;;7.20;68.90;;;;;;6283127;22;20022;-92
2023/05/17 03:57:18;;;;;;;11.40;2.13;;;7.20;68.80;;;;;;6246057;22;20034;-92
2023/05/17 03:59:44;;;;;;;15.23;2.70;;;7.20;68.50;;;;;;6283742;22;20022;-93
2023/05/17 04:02:10;;;;;;;19.30;2.60;;;7.20;68.40;;;;;;6256000;22;20019;-94
2023/05/17 04:04:36;;;;;;;13.90;2.70;;;7.20;68.30;;;;;;6282267;22;20011;-93
2023/05/17 04:07:05;;;;;;;16.30;2.50;;;7.20;68.20;;;;;;6277868;22;20227;-93
2023/05/17 04:09:33;;;;;;;15.27;2.77;;;7.20;68.00;;;;;;6230759;22;20087;-91
2023/05/17 04:12:02;;;;;;;13.17;2.67;;;7.20;67.80;;;;;;6283063;22;20018;-94
2023/05/17 04:14:30;;;;;;;13.40;2.10;;;7.20;67.60;;;;;;6281343;22;20023;-93
2023/05/17 04:16:59;;;;;;;11.90;1.97;;;7.20;67.50;;;;;;6274325;22;20015;-94
2023/05/17 04:19:25;;;;;;;15.13;2.00;;;7.20;67.60;;;;;;6280724;22;20019;-95
2023/05/17 04:21:51;;;;;;;19.43;2.50;;;7.20;67.50;;;;;;6283277;22;20021;-93
2023/05/17 04:24:17;;;;;;;15.37;2.80;;;7.10;67.30;;;;;;6280462;22;20019;-95
2023/05/17 04:26:43;;;;;;;18.40;2.50;;;7.10;67.20;;;;;;6250402;22;20014;-94
2023/05/17 04:29:09;;;;;;;17.20;2.30;;;7.10;67.20;;;;;;6239146;22;20019;-95
2023/05/17 04:31:37;;;;;;;15.33;2.30;;;7.10;67.40;;;;;;6257623;22;20015;-92
2023/05/17 04:34:03;;;;;;;9.50;1.97;;;7.20;67.20;;;;;;6256471;22;20023;-94
2023/05/17 04:36:31;;;;;;;10.30;2.17;;;7.20;67.20;;;;;;6251456;22;20021;-92
2023/05/17 04:38:57;;;;;;;13.87;2.70;;;7.20;67.20;;;;;;6255026;22;20076;-93
2023/05/17 04:41:23;;;;;;;10.60;2.17;;;7.20;67.10;;;;;;6282140;22;20026;-94
2023/05/17 04:43:49;;;;;;;13.47;2.20;;;7.20;67.10;;;;;;6278633;22;20058;-91
2023/05/17 04:46:15;;;;;;;14.10;1.80;;;7.20;67.00;;;;;;6251802;22;20015;-93
2023/05/17 04:48:45;;;;;;;9.30;2.10;;;7.20;66.50;;;;;;6249788;22;20026;-91
2023/05/17 04:51:11;;;;;;;10.03;2.37;;;7.20;66.60;;;;;;6281208;22;20097;-93
2023/05/17 04:53:40;;;;;;;12.17;2.50;;;7.20;66.40;;;;;;6278486;22;20589;-93
2023/05/17 04:56:07;;;;;;;9.30;1.87;;;7.30;66.40;;;;;;6259332;22;20015;-92
2023/05/17 04:58:33;;;;;;;15.57;2.30;;;7.30;66.30;;;;;;6242747;22;20054;-95
2023/05/17 05:00:59;;;;;;;12.40;2.20;;;7.30;66.20;;;;;;6224903;22;20023;-93
2023/05/17 05:03:28;;;;;;;14.73;2.33;;;7.30;66.30;;;;;;6225563;22;20629;-93
2023/05/17 05:05:53;;;;;;;11.13;2.33;;;7.40;66.50;;;;;;6277268;22;20094;-95
2023/05/17 05:08:20;;;;;;;10.53;2.30;;;7.40;66.40;;;;;;6240649;22;20015;-93
2023/05/17 05:10:47;;;;;;;12.87;2.10;;;7.40;66.40;;;;;;6226727;22;20048;-93
2023/05/17 05:13:16;;;;;;;15.37;2.60;;;7.40;66.40;;;;;;6250061;22;20016;-94
2023/05/17 05:15:42;;;;;;;14.43;2.40;;;7.40;66.40;;;;;;6251407;22;20015;-95
2023/05/17 05:18:08;;;;;;;12.50;2.47;;;7.50;66.40;;;;;;6224892;22;20015;-94
2023/05/17 05:20:33;;;;;;;15.93;1.97;;;7.50;66.60;;;;;;6263486;22;20042;-94
2023/05/17 05:23:02;;;;;;;13.57;2.37;;;7.50;66.80;;;;;;6224754;22;20015;-91
2023/05/17 05:25:30;;;;;;;11.40;2.20;;;7.60;67.00;;;;;;6227440;22;20027;-94
2023/05/17 05:27:58;;;;;;;19.00;3.27;;;7.70;67.10;;;;;;6244435;22;20038;-93
2023/05/17 05:30:27;;;;;;;17.70;3.28;;;7.80;67.10;;;;;;6280177;22;20045;-95
2023/05/17 05:32:53;;;;;;;15.87;3.37;;;7.80;66.70;;;;;;6227025;22;20098;-92
2023/05/17 05:35:21;;;;;;;17.23;3.37;;;7.90;66.20;;;;;;6254190;22;20019;-92
2023/05/17 05:37:50;;;;;;;16.50;3.23;;;8.00;65.90;;;;;;6242558;22;20023;-92
2023/05/17 05:40:22;;;;;;;17.47;3.67;;;8.20;65.60;;;;;;6253615;22;20094;-94
2023/05/17 05:42:48;;;;;;;15.10;3.43;;;8.30;65.30;;;;;;6240989;22;20023;-91
2023/05/17 05:45:14;;;;;;;15.83;3.30;;;8.30;65.00;;;;;;6254706;22;20019;-93
2023/05/17 05:47:40;;;;;;;16.47;3.30;;;8.30;64.70;;;;;;6242837;22;20019;-93
2023/05/17 05:50:07;;;;;;;20.23;3.53;;;8.40;65.00;;;;;;6253859;22;20019;-91
2023/05/17 05:52:35;;;;;;;19.10;3.10;;;8.40;64.90;;;;;;6277890;22;20025;-94
2023/05/17 05:55:01;;;;;;;20.60;3.23;;;8.40;64.80;;;;;;6259872;22;20066;-95
2023/05/17 05:57:35;;;;;;;17.03;3.60;;;8.40;64.90;;;;;;6275501;22;20014;-95
2023/05/17 06:00:04;;;;;;;17.50;3.37;;;8.50;65.30;;;;;;6259841;22;20314;-94
2023/05/17 06:02:30;;;;;;;14.77;3.63;;;8.60;65.40;;;;;;6256900;22;20011;-94
2023/05/17 06:04:56;;;;;;;21.43;3.60;;;8.60;65.00;;;;;;6283946;22;20109;-94
2023/05/17 06:07:28;;;;;;;19.73;3.40;;;8.60;64.90;;;;;;6225596;22;20176;-92
2023/05/17 06:09:53;;;;;;;21.43;3.80;;;8.60;64.70;;;;;;6214706;22;20030;-92
2023/05/17 06:12:19;;;;;;;20.93;3.70;;;8.60;64.50;;;;;;6282162;22;20014;-93
2023/05/17 06:14:48;;;;;;;17.47;3.37;;;8.60;64.30;;;;;;6233106;22;20019;-96
2023/05/17 06:17:14;;;;;;;16.13;3.27;;;8.60;64.30;;;;;;6216552;22;20099;-94
2023/05/17 06:19:39;;;;;;;16.80;3.30;;;8.60;64.40;;;;;;6260940;22;20046;-95
2023/05/17 06:22:05;;;;;;;16.17;3.93;;;8.60;64.30;;;;;;6257304;22;20019;-95
2023/05/17 06:24:31;;;;;;;23.07;4.13;;;8.60;64.30;;;;;;6285736;22;20019;-91
2023/05/17 06:27:00;;;;;;;18.63;4.17;;;8.60;64.40;;;;;;6254651;22;20068;-95
2023/05/17 06:29:28;;;;;;;18.83;4.30;;;8.60;64.60;;;;;;6246283;22;20106;-93
2023/05/17 06:32:13;;;;;;;19.67;4.33;;;8.60;64.50;;;;;;6289133;22;20019;-93
2023/05/17 06:34:39;;;;;;;23.07;3.73;;;8.60;64.60;;;;;;6286045;22;20030;-94
2023/05/17 06:37:07;;;;;;;13.83;3.13;;;8.70;64.70;;;;;;6278750;22;20099;-94
2023/05/17 06:39:44;;;;;;;24.37;3.53;;;8.80;64.20;;;;;;6282955;22;20022;-96
2023/05/17 06:42:15;;;;;;;16.03;3.13;;;8.80;64.00;;;;;;6256514;22;20026;-94
2023/05/17 06:44:47;;;;;;;14.18;3.35;;;8.70;63.80;;;;;;6283389;22;20022;-96
2023/05/17 06:47:12;;;;;;;21.47;3.67;;;8.60;63.60;;;;;;6250714;22;20448;-91
2023/05/17 06:49:38;;;;;;;19.30;3.70;;;8.60;63.80;;;;;;6257750;22;20022;-94
2023/05/17 06:52:07;;;;;;;13.70;3.53;;;8.60;63.90;;;;;;6306462;22;20095;-93
2023/05/17 06:54:32;;;;;;;17.47;3.50;;;8.60;63.60;;;;;;6282680;22;20432;-93
2023/05/17 06:57:02;;;;;;;16.70;3.03;;;8.70;63.70;;;;;;6251675;22;20025;-93
2023/05/17 06:59:48;;;;;;;20.77;4.13;;;8.70;63.70;;;;;;6239350;22;20517;-95
2023/05/17 07:02:14;;;;;;;20.33;3.43;;;8.80;63.60;;;;;;6259345;22;20433;-92
2023/05/17 07:04:40;;;;;;;21.83;4.10;;;8.80;63.90;;;;;;6257083;22;20019;-90
2023/05/17 07:07:40;;;;;;;13.93;3.27;;;8.80;63.60;;;;;;6293846;22;20018;-94
2023/05/17 07:10:13;;;;;;;17.83;3.93;;;8.80;62.90;;;;;;6223585;22;20011;-92
2023/05/17 07:12:47;;;;;;;22.20;3.90;;;8.90;63.40;;;;;;6221161;22;20083;-91
2023/05/17 07:15:16;;;;;;;21.07;3.87;;;8.90;63.60;;;;;;6263207;22;20310;-92
2023/05/17 07:17:45;;;;;;;14.57;3.53;;;9.00;63.40;;;;;;6230972;22;20011;-93
2023/05/17 07:20:15;;;;;;;18.27;3.10;;;9.00;63.00;;;;;;6262794;22;20070;-90
2023/05/17 07:22:41;;;;;;;17.83;3.37;;;9.00;62.90;;;;;;6246321;22;20311;-91
2023/05/17 07:25:14;;;;;;;14.53;3.50;;;9.00;62.80;;;;;;6245176;22;20019;-92
2023/05/17 07:27:43;;;;;;;17.73;3.27;;;9.10;62.80;;;;;;6232585;22;20046;-94
2023/05/17 07:30:26;;;;;;;19.87;3.10;;;9.10;62.50;;;;;;6263096;22;20021;-94
2023/05/17 07:32:56;;;;;;;18.07;3.90;;;9.20;62.30;;;;;;6260227;22;20015;-92
2023/05/17 07:35:22;;;;;;;18.63;3.40;;;9.20;62.50;;;;;;6235899;22;20021;-92
2023/05/17 07:38:11;;;;;;;20.70;3.10;;;9.20;62.40;;;;;;6260652;22;20445;-93
2023/05/17 07:40:43;;;;;;;15.60;3.37;;;9.20;62.60;;;;;;6287546;22;20115;-92
2023/05/17 07:43:16;;;;;;;18.27;3.10;;;9.30;62.60;;;;;;6182276;22;20022;-93
2023/05/17 07:46:24;;;;;;;23.30;3.73;;;9.30;62.60;;;;;;6282933;22;20018;-92
2023/05/17 07:49:05;;;;;;;15.50;3.63;;;9.40;62.70;;;;;;6227084;22;20290;-93
2023/05/17 07:51:37;;;;;;;19.30;3.30;;;9.40;62.70;;;;;;6240556;22;20026;-92
2023/05/17 07:54:33;;;;;;;14.70;3.70;;;9.40;63.00;;;;;;6179874;22;20942;-93
2023/05/17 07:57:50;;;;;;;;;;;;;;;;;;;;;
2023/05/17 08:03:10;;;;;;;17.83;3.23;;;9.60;63.60;;;;;;6230825;22;20288;-92
2023/05/17 08:05:51;;;;;;;16.73;3.27;;;9.60;63.50;;;;;;6226434;22;20740;-93
2023/05/17 08:09:10;;;;;;;11.77;3.03;;;9.70;63.20;;;;;;6220696;22;20087;-95
2023/05/17 08:11:46;;;;;;;;;;;;;;;;;;;;;
2023/05/17 08:14:28;;;;;;;14.13;3.07;;;9.70;62.80;;;;;;6188611;22;20059;-94
2023/05/17 08:17:00;;;;;;;18.58;3.03;;;9.70;62.00;;;;;;6145966;23;20103;-92
2023/05/17 08:19:28;;;;;;;13.47;3.07;;;9.70;62.00;;;;;;6141800;23;20179;-91
2023/05/17 08:23:05;;;;;;;;;;;;;;;;;;;;;
2023/05/17 08:25:47;;;;;;;;;;;;;;;;;;;;;
2023/05/17 08:28:16;;;;;;;12.52;3.15;;;10.00;60.70;;;;;;6170715;22;20026;-96
2023/05/17 08:30:50;;;;;;;14.20;2.83;;;10.00;61.30;;;;;;6277025;22;20015;-93
2023/05/17 08:33:49;;;;;;;11.67;3.10;;;10.00;61.10;;;;;;6190678;22;20027;-94
2023/05/17 08:37:01;;;;;;;11.70;2.30;;;10.00;61.10;;;;;;6239741;22;20199;-94
2023/05/17 08:39:38;;;;;;;10.23;2.43;;;10.10;60.10;;;;;;6248313;22;20127;-93
2023/05/17 08:42:20;;;;;;;17.27;3.33;;;10.20;61.00;;;;;;6213622;22;20788;-93
2023/05/17 08:45:01;;;;;;;14.70;2.83;;;10.30;60.50;;;;;;6248042;22;20023;-94
2023/05/17 08:47:55;;;;;;;16.23;3.33;;;10.30;60.30;;;;;;6214531;22;20028;-94
2023/05/17 08:50:25;;;;;;;13.20;2.60;;;10.30;60.90;;;;;;6249753;22;20019;-94
2023/05/17 08:57:54;;;;;;;12.57;2.70;;;10.30;61.50;;;;;;6138748;23;20119;-95
2023/05/17 09:00:23;;;;;;;;;;;10.20;60.70;;;;;;6063486;23;20532;-93
2023/05/17 09:03:02;;;;;;;;;;;;;;;;;;;;;
2023/05/17 09:08:36;;;;;;;9.67;2.30;;;10.30;61.00;;;;;;6199431;22;20418;-93
2023/05/17 09:11:02;;;;;;;11.67;2.10;;;10.40;60.60;;;;;;6235835;22;20019;-93
2023/05/17 09:13:53;;;;;;;11.23;2.10;;;10.40;60.30;;;;;;6231642;22;20501;-94
2023/05/17 09:17:06;;;;;;;;;;;;;;;;;;;;;
2023/05/17 09:23:33;;;;;;;9.00;2.00;;;10.70;58.80;;;;;;6144174;23;20091;-93
2023/05/17 09:26:12;;;;;;;13.37;2.47;;;10.60;59.20;;;;;;6248124;22;20022;-91
2023/05/17 09:28:42;;;;;;;11.30;2.30;;;10.60;59.40;;;;;;6227799;22;20042;-93
2023/05/17 09:31:09;;;;;;;13.13;2.50;;;10.60;59.40;;;;;;6279377;22;20011;-92
2023/05/17 09:33:58;;;;;;;11.60;2.37;;;10.60;59.40;;;;;;6252848;22;20090;-93
2023/05/17 09:36:26;;;;;;;11.17;2.10;;;10.60;59.30;;;;;;6253255;22;20019;-91
2023/05/17 09:43:12;;;;;;;9.67;2.17;;;10.50;58.90;;;;;;6139505;23;20143;-94
2023/05/17 09:45:40;;;;;;;13.53;2.40;;;10.50;58.90;;;;;;6153410;23;20024;-94
2023/05/17 09:48:20;;;;;;;11.03;2.20;;;10.50;59.70;;;;;;6196827;23;20053;-91
2023/05/17 09:50:50;;;;;;;;;;;10.50;59.70;;;;;;6191919;23;20078;-92
2023/05/17 09:53:44;;;;;;;;;;;;;;;;;;;;;
2023/05/17 09:56:34;;;;;;;9.53;2.27;;;10.50;59.40;;;;;;6290160;22;20474;-93
2023/05/17 09:59:17;;;;;;;12.53;2.30;;;10.50;58.20;;;;;;6226413;22;20019;-93
2023/05/17 10:02:17;;;;;;;10.77;2.30;;;10.60;59.10;;;;;;6259478;22;20486;-95
2023/05/17 10:05:10;;;;;;;13.20;2.00;;;10.70;58.60;;;;;;6245326;22;20031;-93
2023/05/17 10:07:40;;;;;;;12.63;2.20;;;10.70;59.10;;;;;;6247372;22;20069;-92
2023/05/17 10:10:49;;;;;;;8.87;2.03;;;10.70;59.10;;;;;;6247397;22;20012;-92
2023/05/17 10:17:32;;;;;;;10.90;2.10;;;10.60;58.80;;;;;;6165686;23;20024;-93
2023/05/17 10:19:58;;;;;;;12.27;2.23;;;10.70;59.00;;;;;;6118649;23;20020;-89
2023/05/17 10:22:27;;;;;;;9.87;2.30;;;10.70;59.00;;;;;;6276696;22;20025;-93
2023/05/17 10:28:50;;;;;;;13.27;2.57;;;10.90;59.00;;;;;;6249443;22;20019;-91
2023/05/17 10:32:10;;;;;;;14.07;3.00;;;10.90;59.20;;;;;;6276672;22;20018;-93
2023/05/17 10:34:49;;;;;;;11.70;2.30;;;11.00;59.70;;;;;;6232697;22;20019;-92
2023/05/17 10:41:21;;;;;;;18.57;2.90;;;10.70;59.90;;;;;;6341126;22;20006;-90
2023/05/17 10:43:52;;;;;;;13.18;2.45;;;10.60;60.30;;;;;;6282656;22;20026;-92
2023/05/17 10:46:25;;;;;;;12.47;2.57;;;10.60;60.00;;;;;;6284251;22;20097;-92
2023/05/17 10:49:14;;;;;;;10.03;2.40;;;10.70;59.90;;;;;;6225451;22;20049;-91
2023/05/17 10:51:58;;;;;;;9.77;2.50;;;10.80;59.00;;;;;;6311997;22;20076;-95
2023/05/17 10:54:59;;;;;;;12.13;2.20;;;10.80;59.30;;;;;;6308227;22;20521;-94
2023/05/17 10:57:35;;;;;;;8.37;2.10;;;10.80;59.20;;;;;;6281357;22;20593;-93
2023/05/17 11:00:05;;;;;;;6.80;2.23;;;10.80;59.20;;;;;;6260018;22;20064;-93
2023/05/17 11:02:38;;;;;;;11.40;1.97;;;10.70;59.20;;;;;;6282380;22;20011;-91
2023/05/17 11:05:23;;;;;;;9.30;2.00;;;10.70;58.80;;;;;;6283901;22;20042;-91
2023/05/17 11:07:49;;;;;;;15.10;2.63;;;10.90;58.90;;;;;;6282174;22;20036;-90
2023/05/17 11:10:16;;;;;;;13.03;2.43;;;11.10;59.40;;;;;;6258276;22;20050;-92
2023/05/17 11:12:54;;;;;;;12.47;2.97;;;11.20;59.40;;;;;;6283670;22;20104;-95
2023/05/17 11:15:25;;;;;;;12.33;2.33;;;11.30;59.30;;;;;;6269524;22;20329;-89
2023/05/17 11:17:55;;;;;;;11.73;2.60;;;11.30;59.30;;;;;;6281379;22;20037;-89
2023/05/17 11:20:24;;;;;;;13.20;3.28;;;11.30;59.40;;;;;;6234596;22;20010;-90
2023/05/17 11:23:14;;;;;;;9.85;2.97;;;11.40;59.00;;;;;;6307613;22;20010;-89
2023/05/17 11:25:40;;;;;;;10.52;2.22;;;11.30;57.80;;;;;;6283566;22;20011;-88
2023/05/17 11:28:26;;;;;;;11.73;2.45;;;11.30;59.00;;;;;;6255964;22;20033;-91
2023/05/17 11:30:59;;;;;;;12.77;2.42;;;11.10;57.90;;;;;;6282815;22;20049;-89
2023/05/17 11:34:01;;;;;;;13.48;2.35;;;11.20;58.60;;;;;;6282724;22;20143;-92
2023/05/17 11:36:30;;;;;;;12.47;2.67;;;11.20;57.50;;;;;;6237407;22;20019;-90
2023/05/17 11:39:13;;;;;;;9.50;2.63;;;11.10;58.70;;;;;;6282986;22;20049;-91
2023/05/17 11:41:47;;;;;;;13.93;2.47;;;11.10;58.20;;;;;;6283528;22;20517;-90
2023/05/17 11:44:13;;;;;;;9.77;2.00;;;11.10;58.20;;;;;;6281875;22;20026;-91
2023/05/17 11:46:42;;;;;;;12.50;2.30;;;11.10;58.20;;;;;;6283085;22;20011;-90
2023/05/17 11:49:08;;;;;;;6.28;1.95;;;11.10;57.90;;;;;;6281851;22;20028;-90
2023/05/17 11:51:34;;;;;;;7.30;1.90;;;10.90;57.70;;;;;;6258250;22;20022;-90
2023/05/17 11:54:05;;;;;;;11.73;2.03;;;10.90;57.90;;;;;;6280952;22;20305;-91
2023/05/17 11:56:37;;;;;;;14.83;2.30;;;11.00;58.00;;;;;;6282878;22;20086;-92
2023/05/17 11:59:06;;;;;;;12.77;2.37;;;11.00;57.70;;;;;;6255731;22;20768;-92
2023/05/17 12:01:45;;;;;;;11.38;2.30;;;11.10;58.10;;;;;;6283318;22;20022;-90
2023/05/17 12:04:12;;;;;;;8.33;2.30;;;11.40;57.80;;;;;;6281417;22;20082;-93
2023/05/17 12:06:43;;;;;;;10.73;2.27;;;11.50;57.30;;;;;;6283399;22;20068;-88
2023/05/17 12:09:09;;;;;;;8.10;2.28;;;11.40;57.10;;;;;;6281017;22;20015;-89
2023/05/17 12:12:03;;;;;;;10.67;2.20;;;11.30;57.10;;;;;;6257953;22;20086;-92
2023/05/17 12:14:38;;;;;;;8.47;2.30;;;11.30;56.70;;;;;;6281570;22;20038;-91
2023/05/17 12:17:12;;;;;;;14.00;2.73;;;11.30;56.80;;;;;;6274730;22;20015;-92
2023/05/17 12:19:38;;;;;;;8.37;2.10;;;11.30;57.20;;;;;;6308633;22;20321;-92
2023/05/17 12:22:07;;;;;;;12.07;2.77;;;11.30;57.40;;;;;;6255582;22;20017;-91
2023/05/17 12:24:40;;;;;;;11.90;2.30;;;11.30;57.20;;;;;;6308924;22;20393;-89
2023/05/17 12:27:23;;;;;;;;;;;11.30;57.40;;;;;;6283477;22;20006;-93
2023/05/17 12:29:49;;;;;;;12.90;2.53;;;11.30;56.90;;;;;;6308950;22;19918;-91
2023/05/17 12:32:15;;;;;;;11.30;2.40;;;11.30;57.60;;;;;;6306622;22;20006;-89
2023/05/17 12:34:41;;;;;;;9.30;2.27;;;11.30;57.10;;;;;;6308418;22;20089;-92
2023/05/17 12:37:09;;;;;;;9.43;2.17;;;11.30;56.80;;;;;;6282111;22;20384;-89
2023/05/17 12:39:35;;;;;;;8.97;2.13;;;11.40;56.80;;;;;;6307953;22;20082;-90
2023/05/17 12:42:01;;;;;;;10.40;2.33;;;11.40;56.70;;;;;;6282749;22;20457;-90
2023/05/17 12:44:27;;;;;;;8.48;2.13;;;11.40;57.00;;;;;;6281042;22;20018;-89
2023/05/17 12:46:54;;;;;;;10.48;1.98;;;11.50;57.40;;;;;;6281556;22;20027;-89
2023/05/17 12:49:20;;;;;;;11.30;2.10;;;11.70;57.40;;;;;;6306635;22;20015;-90
2023/05/17 12:51:47;;;;;;;11.23;2.10;;;11.70;56.90;;;;;;6282327;22;20049;-90
2023/05/17 12:54:28;;;;;;;12.65;2.90;;;11.60;56.80;;;;;;6306433;22;20021;-90
2023/05/17 12:56:55;;;;;;;11.57;2.45;;;11.50;56.50;;;;;;6280626;22;20026;-88
2023/05/17 12:59:23;;;;;;;9.55;2.00;;;11.50;57.10;;;;;;6306369;22;20333;-90
2023/05/17 13:01:55;;;;;;;14.55;2.58;;;11.40;57.10;;;;;;6282263;22;20018;-90
2023/05/17 13:04:28;;;;;;;;;;;11.40;57.30;;;;;;6307031;22;20068;-89
2023/05/17 13:06:56;;;;;;;10.67;2.10;;;11.40;56.60;;;;;;6307308;22;19922;-88
2023/05/17 13:09:24;;;;;;;11.18;2.10;;;11.30;57.60;;;;;;6305440;22;20019;-89
2023/05/17 13:11:54;;;;;;;9.20;1.90;;;11.40;57.60;;;;;;6282824;22;20061;-89
2023/05/17 13:14:35;;;;;;;15.10;2.10;;;11.40;57.60;;;;;;6307033;22;20050;-88
2023/05/17 13:17:02;;;;;;;9.63;1.77;;;11.40;57.60;;;;;;6307085;22;20007;-87
2023/05/17 13:19:28;;;;;;;9.55;2.03;;;11.40;57.70;;;;;;6281171;22;20019;-86
2023/05/17 13:21:53;;;;;;;11.52;2.10;;;11.40;57.70;;;;;;6282733;22;20026;-87
2023/05/17 13:24:19;;;;;;;11.27;1.88;;;11.40;57.40;;;;;;6280443;22;20018;-88
2023/05/17 13:26:48;;;;;;;10.45;1.92;;;11.30;57.50;;;;;;6307799;22;20085;-90
2023/05/17 13:29:16;;;;;;;10.90;1.92;;;11.30;57.30;;;;;;6306450;22;20482;-87
2023/05/17 13:31:41;;;;;;;10.88;2.00;;;11.40;57.70;;;;;;6308221;22;20007;-88
2023/05/17 13:34:07;;;;;;;10.00;1.88;;;11.50;57.30;;;;;;6255446;22;20417;-89
2023/05/17 13:36:33;;;;;;;15.23;2.30;;;11.40;57.70;;;;;;6281744;22;20023;-90
2023/05/17 13:39:00;;;;;;;9.25;2.30;;;11.40;58.20;;;;;;6307593;22;20015;-90
2023/05/17 13:41:27;;;;;;;7.38;1.90;;;11.40;58.70;;;;;;6282553;22;20017;-88
2023/05/17 13:43:56;;;;;;;12.93;2.33;;;11.40;58.80;;;;;;6255070;22;20015;-89
2023/05/17 13:46:22;;;;;;;7.45;2.13;;;11.30;58.90;;;;;;6255987;22;20069;-89
2023/05/17 13:48:47;;;;;;;7.22;1.92;;;11.30;59.20;;;;;;6305950;22;20018;-90
2023/05/17 13:51:13;;;;;;;11.75;2.25;;;11.30;59.10;;;;;;6257919;22;20447;-89
2023/05/17 13:53:40;;;;;;;8.55;1.90;;;11.30;59.10;;;;;;6282085;22;20010;-91
2023/05/17 13:56:06;;;;;;;8.23;2.03;;;11.30;58.90;;;;;;6283493;22;20068;-89
2023/05/17 13:58:35;;;;;;;10.60;1.75;;;11.40;58.60;;;;;;6307767;22;20011;-90
2023/05/17 14:01:01;;;;;;;8.70;1.90;;;11.40;58.20;;;;;;6258428;22;20086;-89
2023/05/17 14:03:27;;;;;;;11.30;2.40;;;11.30;58.30;;;;;;6308557;22;20019;-89